Accueil
METAR-TAF:

METAR-TAF

Aéroports :

Mönchengladbach, Allemagne

latitude: 51-13-49N, longitude: 006-30-16E, altitude: 38 m

Observation

Le bulletin a été fait il y a 17 minutes, à 20:20 UTC
Vent 4 kt de est
Température 2°C
Humidité 93%
Pression 1014 hPa
Visibilité: 7000 m

METAR: EDLN 202020Z AUTO 08004KT 7000 // BKN031/// 02/01 Q1014

Heure: 21:37 (20:37 UTC)

Prévision

Le bulletin a été fait il y a 3 heures et 37 minutes, à 17:00 UTC
Prévision valable du 20 à 18 UTC au 21 à 03 UTC
Vent 4 kt de est
Visibilité 10 km ou plus
Nuages épars à une hauteur de 2500 ft
Evoluant progressivement
du 20 à 21 UTC au 20 à 24 UTC
Visibilité: 3500 m
brume
Temporairement
du 20 à 23 UTC au 21 à 03 UTC
Visibilité: 1300 m
Nuages fragmentés à une hauteur de 800 ft
bancs de brouillard

TAF: EDLN 201700Z 2018/2103 10004KT 9999 SCT025 BECMG 2021/2024 3500 BR TEMPO 2023/2103 1300 BCFG BKN008

Observations et prévisions météorologiques de plus de 4000 aéroports (messages METAR et TAF).

Les stations disponibles sont représentées par des disques jaunes et rouges sur la carte.

Passer la souris dessus pour voir le nom de la station.

Cliquer dessus pour voir les observations et prévisions météorologiques.

Pour changer de carte: cliquez sur les boutons verts avec une croix noire pour zoomer, sur le bouton vert avec un tiret pour effectuer un zoom arrière, ou sur les flèches vertes pour les cartes adjacentes.


METAR-TAF: